createdAt,value
2022-11-25T00:01:25.262Z,2.55
2022-11-25T00:03:55.639Z,2.65
2022-11-25T00:06:25.163Z,2.60
2022-11-25T00:08:57.204Z,2.71
2022-11-25T00:11:25.405Z,2.73
2022-11-25T00:13:54.275Z,2.59
2022-11-25T00:16:23.312Z,2.70
2022-11-25T00:18:53.055Z,2.69
2022-11-25T00:21:23.006Z,2.16
2022-11-25T00:23:57.411Z,2.63
2022-11-25T00:26:26.877Z,2.54
2022-11-25T00:28:57.621Z,2.65
2022-11-25T00:31:27.636Z,2.72
2022-11-25T00:33:55.831Z,2.95
2022-11-25T00:36:25.291Z,3.01
2022-11-25T00:38:56.609Z,3.08
2022-11-25T00:41:43.038Z,3.06
2022-11-25T00:44:29.787Z,3.23
2022-11-25T00:46:57.853Z,3.16
2022-11-25T00:49:28.037Z,3.17
2022-11-25T00:51:56.964Z,3.17
2022-11-25T00:54:26.905Z,3.17
2022-11-25T00:56:55.714Z,3.28
2022-11-25T00:59:23.725Z,2.89
2022-11-25T01:01:53.688Z,3.18
2022-11-25T01:04:21.691Z,3.13
2022-11-25T01:06:49.801Z,3.19
2022-11-25T01:09:17.855Z,3.14
2022-11-25T01:11:47.368Z,3.01
2022-11-25T01:14:15.459Z,3.19
2022-11-25T01:16:43.544Z,3.07
2022-11-25T01:19:12.493Z,2.92
2022-11-25T01:21:40.493Z,2.87
2022-11-25T01:24:09.726Z,3.05
2022-11-25T01:26:37.776Z,2.85
2022-11-25T01:29:09.335Z,2.93
2022-11-25T01:31:38.361Z,2.93
2022-11-25T01:34:08.786Z,2.86
2022-11-25T01:36:36.966Z,2.71
2022-11-25T01:39:05.995Z,2.78
2022-11-25T01:41:35.114Z,2.72
2022-11-25T01:44:11.124Z,3.06
2022-11-25T01:46:50.859Z,3.00
2022-11-25T01:49:22.311Z,2.66
2022-11-25T01:51:57.069Z,2.91
2022-11-25T01:54:28.258Z,2.94
2022-11-25T01:57:00.995Z,2.97
2022-11-25T01:59:33.491Z,1.66
2022-11-25T02:02:02.143Z,2.90
2022-11-25T02:04:34.381Z,2.92
2022-11-25T02:07:10.710Z,2.57
2022-11-25T02:09:44.383Z,2.91
2022-11-25T02:12:13.298Z,2.84
2022-11-25T02:14:43.168Z,2.95
2022-11-25T02:17:12.990Z,2.90
2022-11-25T02:19:53.837Z,2.97
2022-11-25T02:22:27.888Z,2.75
2022-11-25T02:25:03.523Z,2.95
2022-11-25T02:27:33.091Z,2.76
2022-11-25T02:30:01.201Z,2.92
2022-11-25T02:32:29.330Z,2.93
2022-11-25T02:35:00.222Z,2.67
2022-11-25T02:37:29.880Z,2.37
2022-11-25T02:39:57.947Z,2.90
2022-11-25T02:42:29.089Z,2.67
2022-11-25T02:45:00.406Z,2.94
2022-11-25T02:47:28.879Z,3.07
2022-11-25T02:49:57.353Z,3.13
2022-11-25T02:52:25.703Z,3.13
2022-11-25T02:54:53.831Z,3.04
2022-11-25T02:57:22.835Z,2.98
2022-11-25T02:59:50.815Z,2.96
2022-11-25T03:02:21.592Z,3.10
2022-11-25T03:04:49.617Z,3.18
2022-11-25T03:07:20.668Z,3.26
2022-11-25T03:09:49.595Z,3.36
2022-11-25T03:12:20.486Z,3.44
2022-11-25T03:14:51.553Z,3.49
2022-11-25T03:17:21.133Z,3.43
2022-11-25T03:19:49.155Z,3.37
2022-11-25T03:22:17.915Z,3.41
2022-11-25T03:24:46.249Z,3.40
2022-11-25T03:27:14.314Z,3.29
2022-11-25T03:29:42.777Z,3.12
2022-11-25T03:32:11.110Z,3.45
2022-11-25T03:34:41.035Z,3.38
2022-11-25T03:37:09.323Z,3.29
2022-11-25T03:39:38.303Z,3.40
2022-11-25T03:42:08.201Z,3.26
2022-11-25T03:44:36.876Z,3.47
2022-11-25T03:47:05.498Z,3.61
2022-11-25T03:49:34.546Z,3.54
2022-11-25T03:52:04.487Z,3.56
2022-11-25T03:54:32.494Z,3.53
2022-11-25T03:57:21.868Z,3.65
2022-11-25T03:59:50.143Z,3.60
2022-11-25T04:02:19.752Z,3.36
2022-11-25T04:04:48.657Z,3.50
2022-11-25T04:07:19.911Z,3.69
2022-11-25T04:09:51.552Z,1.58
2022-11-25T04:12:41.246Z,3.56
2022-11-25T04:15:10.883Z,3.65
2022-11-25T04:17:41.530Z,3.47
2022-11-25T04:20:10.793Z,3.64
2022-11-25T04:22:41.176Z,3.92
2022-11-25T04:25:10.682Z,3.88
2022-11-25T04:27:39.090Z,3.89
2022-11-25T04:30:09.219Z,3.87
2022-11-25T04:32:40.378Z,3.86
2022-11-25T04:35:10.932Z,3.94
2022-11-25T04:37:42.185Z,3.90
2022-11-25T04:40:11.462Z,3.84
2022-11-25T04:42:40.544Z,3.81
2022-11-25T04:45:24.395Z,3.88
2022-11-25T04:47:54.866Z,4.04
2022-11-25T04:50:25.457Z,3.63
2022-11-25T04:53:07.231Z,3.86
2022-11-25T04:55:35.313Z,3.77
2022-11-25T04:58:07.201Z,3.70
2022-11-25T05:00:36.200Z,3.66
2022-11-25T05:03:06.436Z,3.75
2022-11-25T05:05:39.346Z,3.69
2022-11-25T05:08:09.687Z,3.76
2022-11-25T05:10:38.747Z,3.87
2022-11-25T05:13:06.911Z,3.96
2022-11-25T05:15:35.241Z,3.90
2022-11-25T05:18:07.659Z,3.97
2022-11-25T05:20:47.257Z,3.88
2022-11-25T05:23:20.537Z,3.98
2022-11-25T05:25:49.903Z,4.03
2022-11-25T05:28:32.704Z,4.06
2022-11-25T05:31:01.421Z,4.19
2022-11-25T05:33:30.357Z,4.18
2022-11-25T05:36:00.685Z,4.18
2022-11-25T05:38:37.213Z,3.81
2022-11-25T05:41:07.797Z,3.88
2022-11-25T05:43:36.334Z,4.19
2022-11-25T05:46:06.487Z,4.43
2022-11-25T05:48:36.368Z,4.92
2022-11-25T05:51:05.664Z,5.09
2022-11-25T05:53:34.606Z,5.18
2022-11-25T05:56:07.649Z,5.30
2022-11-25T05:58:56.423Z,5.32
2022-11-25T06:01:30.671Z,5.10
2022-11-25T06:04:01.068Z,5.49
2022-11-25T06:06:31.078Z,5.24
2022-11-25T06:08:59.290Z,5.61
2022-11-25T06:11:29.006Z,5.62
2022-11-25T06:13:58.437Z,5.68
2022-11-25T06:16:27.102Z,5.68
2022-11-25T06:19:06.974Z,5.71
2022-11-25T06:21:35.689Z,5.75
2022-11-25T06:24:03.702Z,5.71
2022-11-25T06:26:33.647Z,5.26
2022-11-25T06:29:02.032Z,5.78
2022-11-25T06:31:30.793Z,5.79
2022-11-25T06:34:10.817Z,5.79
2022-11-25T06:36:40.907Z,5.81
2022-11-25T06:39:09.449Z,5.87
2022-11-25T06:41:38.897Z,5.88
2022-11-25T06:44:06.877Z,5.82
2022-11-25T06:46:36.621Z,5.87
2022-11-25T06:49:04.834Z,5.78
2022-11-25T06:51:32.825Z,5.50
2022-11-25T06:54:00.797Z,5.85
2022-11-25T06:56:29.508Z,5.82
2022-11-25T06:58:58.797Z,5.86
2022-11-25T07:01:29.051Z,5.74
2022-11-25T07:03:59.157Z,5.91
2022-11-25T07:06:27.524Z,5.85
2022-11-25T07:08:55.597Z,5.89
2022-11-25T07:11:25.973Z,5.95
2022-11-25T07:13:56.019Z,5.87
2022-11-25T07:16:26.022Z,5.91
2022-11-25T07:18:54.502Z,5.91
2022-11-25T07:21:25.462Z,6.04
2022-11-25T07:23:53.932Z,5.99
2022-11-25T07:26:23.762Z,6.00
2022-11-25T07:28:53.500Z,5.98
2022-11-25T07:31:24.768Z,6.04
2022-11-25T07:33:59.680Z,5.96
2022-11-25T07:36:28.704Z,6.01
2022-11-25T07:38:57.031Z,6.04
2022-11-25T07:41:26.732Z,6.13
2022-11-25T07:43:56.939Z,6.20
2022-11-25T07:46:27.757Z,6.29
2022-11-25T07:49:02.974Z,6.15
2022-11-25T07:51:33.349Z,6.27
2022-11-25T07:54:03.286Z,6.23
2022-11-25T07:56:31.814Z,6.29
2022-11-25T07:58:59.965Z,6.33
2022-11-25T08:01:28.308Z,6.36
2022-11-25T08:03:58.012Z,6.32
2022-11-25T08:06:28.226Z,6.44
2022-11-25T08:08:56.244Z,6.49
2022-11-25T08:11:26.529Z,6.46
2022-11-25T08:13:54.559Z,6.45
2022-11-25T08:16:24.685Z,6.26
2022-11-25T08:18:55.221Z,6.43
2022-11-25T08:21:24.832Z,6.39
2022-11-25T08:23:53.444Z,5.44
2022-11-25T08:26:23.128Z,6.32
2022-11-25T08:28:51.529Z,6.50
2022-11-25T08:31:22.047Z,6.41
2022-11-25T08:33:51.103Z,6.43
2022-11-25T08:36:19.838Z,6.13
2022-11-25T08:38:52.249Z,5.97
2022-11-25T08:41:22.722Z,5.40
2022-11-25T08:43:51.212Z,5.96
2022-11-25T08:46:22.223Z,6.49
2022-11-25T08:48:50.474Z,6.63
2022-11-25T08:51:21.041Z,6.44
2022-11-25T08:53:51.667Z,6.51
2022-11-25T08:56:25.781Z,6.53
2022-11-25T08:58:54.614Z,6.61
2022-11-25T09:01:25.742Z,6.64
2022-11-25T09:03:56.499Z,6.71
2022-11-25T09:06:26.076Z,6.18
2022-11-25T09:08:58.453Z,6.05
2022-11-25T09:11:27.414Z,6.71
2022-11-25T09:13:55.417Z,6.74
2022-11-25T09:16:24.356Z,6.61
2022-11-25T09:18:56.009Z,6.81
2022-11-25T09:21:25.774Z,6.75
2022-11-25T09:23:55.186Z,6.84
2022-11-25T09:26:26.900Z,6.87
2022-11-25T09:28:55.293Z,6.84
2022-11-25T09:31:24.606Z,6.84
2022-11-25T09:33:52.922Z,6.96
2022-11-25T09:36:23.677Z,6.92
2022-11-25T09:38:56.133Z,6.77
2022-11-25T09:42:01.759Z,6.92
2022-11-25T09:45:00.240Z,6.61
2022-11-25T09:47:34.700Z,7.06
2022-11-25T09:50:13.813Z,7.05
2022-11-25T09:52:49.318Z,6.91
2022-11-25T09:55:20.599Z,7.07
2022-11-25T09:58:11.229Z,7.02
2022-11-25T10:00:42.406Z,6.97
2022-11-25T10:03:20.135Z,6.98
2022-11-25T10:06:04.575Z,7.00
2022-11-25T10:08:38.911Z,6.97
2022-11-25T10:11:19.123Z,6.63
2022-11-25T10:13:54.944Z,7.16
2022-11-25T10:16:37.040Z,7.24
2022-11-25T10:19:16.905Z,7.08
2022-11-25T10:21:46.432Z,7.20
2022-11-25T10:24:17.678Z,7.17
2022-11-25T10:26:47.808Z,7.30
2022-11-25T10:29:27.481Z,7.31
2022-11-25T10:32:22.018Z,7.38
2022-11-25T10:34:53.782Z,7.44
2022-11-25T10:37:28.670Z,7.46
2022-11-25T10:39:56.810Z,7.20
2022-11-25T10:42:27.039Z,7.24
2022-11-25T10:44:56.742Z,7.28
2022-11-25T10:47:37.438Z,7.20
2022-11-25T10:50:16.392Z,7.20
2022-11-25T10:52:51.454Z,7.27
2022-11-25T10:55:24.108Z,7.28
2022-11-25T10:57:52.510Z,7.32
2022-11-25T11:00:33.762Z,7.31
2022-11-25T11:03:17.283Z,7.24
2022-11-25T11:05:47.634Z,7.40
2022-11-25T11:08:18.611Z,7.32
2022-11-25T11:10:48.786Z,6.69
2022-11-25T11:13:24.318Z,7.28
2022-11-25T11:15:55.590Z,7.26
2022-11-25T11:18:29.223Z,7.15
2022-11-25T11:20:59.511Z,7.40
2022-11-25T11:23:28.396Z,7.48
2022-11-25T11:26:02.012Z,7.62
2022-11-25T11:28:38.890Z,7.65
2022-11-25T11:31:19.219Z,7.74
2022-11-25T11:34:02.094Z,7.82
2022-11-25T11:36:52.594Z,7.65
2022-11-25T11:39:59.941Z,7.96
2022-11-25T11:42:41.090Z,7.94
2022-11-25T11:45:33.523Z,8.04
2022-11-25T11:48:12.394Z,8.08
2022-11-25T11:50:44.970Z,7.90
2022-11-25T11:53:23.922Z,7.87
2022-11-25T11:56:33.721Z,7.94
2022-11-25T11:59:02.640Z,8.09
2022-11-25T12:01:40.915Z,7.90
2022-11-25T12:04:19.177Z,8.13
2022-11-25T12:06:57.940Z,8.09
2022-11-25T12:09:30.005Z,8.10
2022-11-25T12:12:05.598Z,8.00
2022-11-25T12:14:41.400Z,8.05
2022-11-25T12:17:18.297Z,8.12
2022-11-25T12:19:56.226Z,8.17
2022-11-25T12:22:30.049Z,8.11
2022-11-25T12:25:07.501Z,8.48
2022-11-25T12:27:40.036Z,8.53
2022-11-25T12:30:14.005Z,8.31
2022-11-25T12:32:54.557Z,8.70
2022-11-25T12:35:34.944Z,8.56
2022-11-25T12:38:06.873Z,8.77
2022-11-25T12:40:42.351Z,8.80
2022-11-25T12:43:34.411Z,8.78
2022-11-25T12:46:13.196Z,8.83
2022-11-25T12:48:43.675Z,8.81
2022-11-25T12:51:21.611Z,8.85
2022-11-25T12:54:02.580Z,8.84
2022-11-25T12:56:51.052Z,8.81
2022-11-25T12:59:37.069Z,8.69
2022-11-25T13:02:31.337Z,8.86
2022-11-25T13:05:41.257Z,8.92
2022-11-25T13:08:24.489Z,8.96
2022-11-25T13:11:09.717Z,9.07
2022-11-25T13:13:51.064Z,9.09
2022-11-25T13:16:21.379Z,8.99
2022-11-25T13:18:50.927Z,9.01
2022-11-25T13:21:20.952Z,9.00
2022-11-25T13:23:53.434Z,9.06
2022-11-25T13:26:50.319Z,9.16
2022-11-25T13:30:01.436Z,9.21
2022-11-25T13:32:39.417Z,9.14
2022-11-25T13:35:38.719Z,9.13
2022-11-25T13:38:37.666Z,9.04
2022-11-25T13:41:24.267Z,9.14
2022-11-25T13:44:01.710Z,9.15
2022-11-25T13:46:39.002Z,9.13
2022-11-25T13:49:08.746Z,9.14
2022-11-25T13:51:38.025Z,8.97
2022-11-25T13:54:07.881Z,8.91
2022-11-25T13:56:40.198Z,8.78
2022-11-25T13:59:36.394Z,8.76
2022-11-25T14:02:45.636Z,8.74
2022-11-25T14:05:51.402Z,8.70
2022-11-25T14:08:27.607Z,8.62
2022-11-25T14:11:19.784Z,8.56
2022-11-25T14:14:14.811Z,8.58
2022-11-25T14:17:02.402Z,8.48
2022-11-25T14:20:04.509Z,8.37
2022-11-25T14:23:02.649Z,8.32
2022-11-25T14:25:43.258Z,8.24
2022-11-25T14:28:23.050Z,8.05
2022-11-25T14:30:55.453Z,8.11
2022-11-25T14:33:31.526Z,7.92
2022-11-25T14:36:04.624Z,7.97
2022-11-25T14:38:39.871Z,7.93
2022-11-25T14:41:12.519Z,7.94
2022-11-25T14:43:44.228Z,7.87
2022-11-25T14:46:16.634Z,7.71
2022-11-25T14:48:45.371Z,7.82
2022-11-25T14:51:14.843Z,7.53
2022-11-25T14:53:48.257Z,7.63
2022-11-25T14:56:22.152Z,7.43
2022-11-25T14:58:51.808Z,7.36
2022-11-25T15:01:24.001Z,7.35
2022-11-25T15:04:02.383Z,7.26
2022-11-25T15:06:35.445Z,7.58
2022-11-25T15:09:04.672Z,7.65
2022-11-25T15:11:35.894Z,7.64
2022-11-25T15:14:06.827Z,7.57
2022-11-25T15:16:39.871Z,7.44
2022-11-25T15:19:17.596Z,7.30
2022-11-25T15:22:15.009Z,7.30
2022-11-25T15:24:42.875Z,7.28
2022-11-25T15:27:16.134Z,7.27
2022-11-25T15:29:45.141Z,7.09
2022-11-25T15:32:19.099Z,7.26
2022-11-25T15:34:48.561Z,7.08
2022-11-25T15:37:16.601Z,7.12
2022-11-25T15:39:44.772Z,6.63
2022-11-25T15:42:17.799Z,7.08
2022-11-25T15:44:50.105Z,7.13
2022-11-25T15:47:24.531Z,7.03
2022-11-25T15:50:01.699Z,6.92
2022-11-25T15:52:32.320Z,6.91
2022-11-25T15:55:04.417Z,6.71
2022-11-25T15:57:35.837Z,6.78
2022-11-25T16:00:16.139Z,6.65
2022-11-25T16:02:53.204Z,6.62
2022-11-25T16:05:31.681Z,6.30
2022-11-25T16:08:02.878Z,6.32
2022-11-25T16:10:32.628Z,6.33
2022-11-25T16:13:29.679Z,6.29
2022-11-25T16:16:02.140Z,6.33
2022-11-25T16:18:40.642Z,6.29
2022-11-25T16:21:11.779Z,6.19
2022-11-25T16:23:44.569Z,6.12
2022-11-25T16:26:18.553Z,5.79
2022-11-25T16:28:54.499Z,6.04
2022-11-25T16:31:23.394Z,5.94
2022-11-25T16:33:55.281Z,5.97
2022-11-25T16:36:23.336Z,5.94
2022-11-25T16:38:54.188Z,5.99
2022-11-25T16:41:25.399Z,5.90
2022-11-25T16:43:57.208Z,5.42
2022-11-25T16:46:28.109Z,5.89
2022-11-25T16:48:57.520Z,5.89
2022-11-25T16:51:26.064Z,5.93
2022-11-25T16:53:54.027Z,6.03
2022-11-25T16:56:27.862Z,5.75
2022-11-25T16:58:56.560Z,5.93
2022-11-25T17:01:27.556Z,5.74
2022-11-25T17:03:58.238Z,5.81
2022-11-25T17:06:28.321Z,5.78
2022-11-25T17:08:56.512Z,5.72
2022-11-25T17:11:29.969Z,5.90
2022-11-25T17:14:00.430Z,5.78
2022-11-25T17:16:30.943Z,5.87
2022-11-25T17:19:01.598Z,5.79
2022-11-25T17:21:29.761Z,5.85
2022-11-25T17:24:02.931Z,5.77
2022-11-25T17:26:37.840Z,5.79
2022-11-25T17:29:09.665Z,5.65
2022-11-25T17:31:39.668Z,5.79
2022-11-25T17:34:14.658Z,5.77
2022-11-25T17:36:42.933Z,5.84
2022-11-25T17:39:13.228Z,5.85
2022-11-25T17:41:45.012Z,5.70
2022-11-25T17:44:26.214Z,5.80
2022-11-25T17:46:54.672Z,5.63
2022-11-25T17:49:24.830Z,5.92
2022-11-25T17:51:53.189Z,5.85
2022-11-25T17:54:21.174Z,5.94
2022-11-25T17:56:52.296Z,5.89
2022-11-25T17:59:26.434Z,6.07
2022-11-25T18:01:55.993Z,6.09
2022-11-25T18:04:27.893Z,6.04
2022-11-25T18:06:56.110Z,6.20
2022-11-25T18:09:24.251Z,6.24
2022-11-25T18:11:54.303Z,6.22
2022-11-25T18:14:26.839Z,6.21
2022-11-25T18:16:55.889Z,6.15
2022-11-25T18:19:25.649Z,6.14
2022-11-25T18:21:53.870Z,6.11
2022-11-25T18:24:22.151Z,6.20
2022-11-25T18:26:53.041Z,6.31
2022-11-25T18:29:24.990Z,6.35
2022-11-25T18:31:55.986Z,6.43
2022-11-25T18:34:26.364Z,6.43
2022-11-25T18:36:54.455Z,6.44
2022-11-25T18:39:23.396Z,6.42
2022-11-25T18:41:53.850Z,6.43
2022-11-25T18:44:26.296Z,6.31
2022-11-25T18:47:05.856Z,6.32
2022-11-25T18:49:35.335Z,5.77
2022-11-25T18:52:04.999Z,6.38
2022-11-25T18:54:33.189Z,6.40
2022-11-25T18:57:01.365Z,6.43
2022-11-25T18:59:34.066Z,6.42
2022-11-25T19:02:02.461Z,6.44
2022-11-25T19:04:30.515Z,6.45
2022-11-25T19:07:00.185Z,6.28
2022-11-25T19:09:28.325Z,6.07
2022-11-25T19:11:56.580Z,5.76
2022-11-25T19:14:30.358Z,6.36
2022-11-25T19:17:02.004Z,6.61
2022-11-25T19:19:30.896Z,6.54
2022-11-25T19:22:01.495Z,6.63
2022-11-25T19:24:29.666Z,6.66
2022-11-25T19:26:58.470Z,6.78
2022-11-25T19:29:35.365Z,6.90
2022-11-25T19:32:14.022Z,6.57
2022-11-25T19:34:45.857Z,7.06
2022-11-25T19:37:19.904Z,7.39
2022-11-25T19:39:48.336Z,7.40
2022-11-25T19:42:16.261Z,7.43
2022-11-25T19:44:45.073Z,7.83
2022-11-25T19:47:17.841Z,7.68
2022-11-25T19:49:46.337Z,7.84
2022-11-25T19:52:17.915Z,7.85
2022-11-25T19:54:46.164Z,7.93
2022-11-25T19:57:17.591Z,7.91
2022-11-25T19:59:46.200Z,7.47
2022-11-25T20:02:16.919Z,7.89
2022-11-25T20:04:46.693Z,7.84
2022-11-25T20:07:18.013Z,7.69
2022-11-25T20:09:46.115Z,7.73
2022-11-25T20:12:21.363Z,7.85
2022-11-25T20:14:50.038Z,7.91
2022-11-25T20:17:25.660Z,7.93
2022-11-25T20:19:54.853Z,7.92
2022-11-25T20:22:31.309Z,8.13
2022-11-25T20:25:01.505Z,8.33
2022-11-25T20:27:29.960Z,8.30
2022-11-25T20:29:58.010Z,7.96
2022-11-25T20:32:29.168Z,8.29
2022-11-25T20:34:58.037Z,8.31
2022-11-25T20:37:40.273Z,8.22
2022-11-25T20:40:16.790Z,8.17
2022-11-25T20:42:45.096Z,6.48
2022-11-25T20:45:15.370Z,8.19
2022-11-25T20:47:43.564Z,8.17
2022-11-25T20:50:14.108Z,8.11
2022-11-25T20:52:44.440Z,7.93
2022-11-25T20:55:16.625Z,8.14
2022-11-25T20:57:45.123Z,8.04
2022-11-25T21:00:18.589Z,7.44
2022-11-25T21:02:46.827Z,7.78
2022-11-25T21:05:15.057Z,7.80
2022-11-25T21:07:45.318Z,7.61
2022-11-25T21:10:21.384Z,7.92
2022-11-25T21:12:50.008Z,7.79
2022-11-25T21:15:20.362Z,7.55
2022-11-25T21:17:48.351Z,7.85
2022-11-25T21:20:18.164Z,7.88
2022-11-25T21:22:51.060Z,7.52
2022-11-25T21:25:21.535Z,7.91
2022-11-25T21:27:52.170Z,7.83
2022-11-25T21:30:21.770Z,7.86
2022-11-25T21:32:53.190Z,8.05
2022-11-25T21:35:21.361Z,7.84
2022-11-25T21:37:50.887Z,7.83
2022-11-25T21:40:31.403Z,7.81
2022-11-25T21:42:59.872Z,7.74
2022-11-25T21:45:28.038Z,7.77
2022-11-25T21:47:56.122Z,7.75
2022-11-25T21:50:29.214Z,7.67
2022-11-25T21:53:00.970Z,7.76
2022-11-25T21:55:28.941Z,7.93
2022-11-25T21:57:56.993Z,8.18
2022-11-25T22:00:27.538Z,8.34
2022-11-25T22:02:55.855Z,8.47
2022-11-25T22:05:26.780Z,8.39
2022-11-25T22:07:55.319Z,8.41
2022-11-25T22:10:25.638Z,8.26
2022-11-25T22:12:53.694Z,8.27
2022-11-25T22:15:24.197Z,8.49
2022-11-25T22:17:56.605Z,8.52
2022-11-25T22:20:30.471Z,8.55
2022-11-25T22:22:58.538Z,8.24
2022-11-25T22:25:30.703Z,8.51
2022-11-25T22:27:58.995Z,8.00
2022-11-25T22:30:26.896Z,8.34
2022-11-25T22:33:01.068Z,8.38
2022-11-25T22:35:29.720Z,8.41
2022-11-25T22:37:57.789Z,8.33
2022-11-25T22:40:27.669Z,8.38
2022-11-25T22:42:57.452Z,8.23
2022-11-25T22:45:31.901Z,8.29
2022-11-25T22:48:02.039Z,8.30
2022-11-25T22:50:31.551Z,8.13
2022-11-25T22:53:00.346Z,8.21
2022-11-25T22:55:31.972Z,8.07
2022-11-25T22:58:04.096Z,8.33
2022-11-25T23:00:35.190Z,8.32
2022-11-25T23:03:07.257Z,8.21
2022-11-25T23:05:37.275Z,8.25
2022-11-25T23:08:12.516Z,8.03
2022-11-25T23:10:42.565Z,8.17
2022-11-25T23:13:10.530Z,8.13
2022-11-25T23:15:39.005Z,8.30
2022-11-25T23:18:15.338Z,8.11
2022-11-25T23:20:43.775Z,8.22
2022-11-25T23:23:15.995Z,8.38
2022-11-25T23:25:46.334Z,8.29
2022-11-25T23:28:14.431Z,8.29
2022-11-25T23:30:48.163Z,8.45
2022-11-25T23:33:22.823Z,8.34
2022-11-25T23:35:51.125Z,8.50
2022-11-25T23:38:23.755Z,8.37
2022-11-25T23:40:53.229Z,8.39
2022-11-25T23:43:21.510Z,8.36
2022-11-25T23:45:52.873Z,8.33
2022-11-25T23:48:23.911Z,8.44
2022-11-25T23:50:53.074Z,8.38
2022-11-25T23:53:25.809Z,8.22
2022-11-25T23:55:55.369Z,8.30
2022-11-25T23:58:24.740Z,8.37
